Time;durP1;ratioP1;P1;durP2;ratioP2;P2;SDS_P1;SDS_P2;PMS_P1;PMS_P2;Temp;Humidity;BMP_temperature;BMP_pressure;BME280_temperature;BME280_humidity;BME280_pressure;Samples;Min_cycle;Max_cycle;Signal;HPM_P1;HPM_P2
2023/12/07 06:22:10;;;;;;;;;0.00;0.00;;;;;6.15;100.00;101438.31;5187134;22;25505259;-83
2023/12/07 06:24:35;;;;;;;;;0.00;0.00;;;;;6.14;100.00;101429.66;6247379;22;45375;-83
2023/12/07 06:27:02;;;;;;;;;0.00;0.00;;;;;6.15;100.00;101415.91;6246766;22;45353;-82
2023/12/07 06:29:28;;;;;;;;;1.00;1.00;;;;;6.14;100.00;101405.56;6271735;22;45545;-82
2023/12/07 06:31:55;;;;;;;;;0.00;0.00;;;;;6.13;100.00;101385.72;6247001;22;46094;-81
2023/12/07 06:34:20;;;;;;;;;0.00;0.00;;;;;6.12;100.00;101397.78;6244553;22;45445;-83
2023/12/07 06:36:47;;;;;;;;;0.00;0.00;;;;;6.11;100.00;101401.25;6244720;22;61857;-83
2023/12/07 06:39:13;;;;;;;;;0.00;0.00;;;;;6.16;100.00;101403.81;6246577;22;45315;-83
2023/12/07 06:41:39;;;;;;;;;1.00;0.00;;;;;6.15;100.00;101404.72;6245840;22;45900;-84
2023/12/07 06:44:04;;;;;;;;;0.00;0.00;;;;;6.17;100.00;101402.97;6273699;22;45275;-84
2023/12/07 06:46:29;;;;;;;;;0.00;0.00;;;;;6.18;100.00;101399.50;6273496;22;45191;-82
2023/12/07 06:48:55;;;;;;;;;0.00;0.00;;;;;6.18;100.00;101402.97;6273306;22;55763;-84
2023/12/07 06:51:20;;;;;;;;;0.00;0.00;;;;;6.22;100.00;101401.22;6245630;22;62812;-83
2023/12/07 06:53:46;;;;;;;;;0.00;0.00;;;;;6.24;100.00;101403.81;6273525;22;45363;-83
2023/12/07 06:56:11;;;;;;;;;0.00;0.00;;;;;6.25;100.00;101405.56;6246111;22;61241;-83
2023/12/07 06:58:37;;;;;;;;;0.00;0.00;;;;;6.25;100.00;101405.56;6273374;22;55350;-84
2023/12/07 07:01:02;;;;;;;;;0.00;0.00;;;;;6.25;100.00;101402.97;6246583;22;45385;-84
2023/12/07 07:03:28;;;;;;;;;0.00;0.00;;;;;6.27;100.00;101404.69;6245845;22;45940;-83
2023/12/07 07:05:54;;;;;;;;;0.00;0.00;;;;;6.27;100.00;101390.91;6271651;22;45274;-84
2023/12/07 07:08:20;;;;;;;;;4.00;4.00;;;;;6.28;100.00;101390.91;6274116;22;45259;-85
2023/12/07 07:10:48;;;;;;;;;0.00;0.00;;;;;6.23;100.00;101381.44;6246023;22;72364;-86
2023/12/07 07:13:15;;;;;;;;;0.00;0.00;;;;;6.21;100.00;101386.59;6246965;22;45386;-85
2023/12/07 07:15:42;;;;;;;;;0.00;0.00;;;;;6.28;100.00;101385.72;6274123;22;45286;-81
2023/12/07 07:18:07;;;;;;;;;0.00;0.00;;;;;6.26;100.00;101387.47;6246913;22;45383;-84
2023/12/07 07:20:32;;;;;;;;;0.00;0.00;;;;;6.26;100.00;101402.97;6270629;22;76529;-83
2023/12/07 07:22:57;;;;;;;;;0.00;0.00;;;;;6.27;100.00;101409.84;6244710;22;67669;-83
2023/12/07 07:25:23;;;;;;;;;0.00;0.00;;;;;6.28;100.00;101427.09;6272747;22;64471;-83
2023/12/07 07:27:48;;;;;;;;;0.00;0.00;;;;;6.28;100.00;101423.63;6272166;22;45228;-84
2023/12/07 07:30:14;;;;;;;;;0.00;0.00;;;;;6.27;100.00;101432.28;6246518;22;45252;-84
2023/12/07 07:32:40;;;;;;;;;0.00;0.00;;;;;6.21;100.00;101425.38;6245689;22;45255;-83
2023/12/07 07:35:05;;;;;;;;;0.00;0.00;;;;;6.20;100.00;101424.53;6273791;22;45248;-83
2023/12/07 07:37:31;;;;;;;;;0.00;0.00;;;;;6.18;100.00;101415.03;6274370;22;45355;-83
2023/12/07 07:39:56;;;;;;;;;0.00;0.00;;;;;6.16;100.00;101419.34;6272718;22;63609;-84
2023/12/07 07:42:21;;;;;;;;;0.00;0.00;;;;;6.10;100.00;101409.84;6245954;22;70831;-85
2023/12/07 07:44:47;;;;;;;;;0.00;0.00;;;;;6.08;100.00;101400.38;6272575;22;64604;-83
2023/12/07 07:47:12;;;;;;;;;0.00;0.00;;;;;6.07;100.00;101389.16;6273552;22;45328;-83
2023/12/07 07:49:37;;;;;;;;;0.00;0.00;;;;;6.09;100.00;101395.22;6246057;22;47152;-83
2023/12/07 07:52:04;;;;;;;;;0.00;0.00;;;;;6.10;100.00;101396.94;6272622;22;70324;-83
2023/12/07 07:54:30;;;;;;;;;0.00;0.00;;;;;6.12;100.00;101371.09;6272797;22;45439;-83
2023/12/07 07:56:55;;;;;;;;;0.00;0.00;;;;;6.19;100.00;101375.41;6271756;22;45670;-82
2023/12/07 07:59:20;;;;;;;;;0.00;0.00;;;;;6.09;100.00;101366.78;6245248;22;69303;-83
2023/12/07 08:01:47;;;;;;;;;0.00;0.00;;;;;6.10;100.00;101375.41;6245039;22;52163;-84
2023/12/07 08:04:12;;;;;;;;;0.00;0.00;;;;;6.10;100.00;101373.66;6247244;22;45291;-84
2023/12/07 08:06:37;;;;;;;;;0.00;0.00;;;;;6.10;100.00;101362.47;6245308;22;66734;-83
2023/12/07 08:09:03;;;;;;;;;0.50;0.50;;;;;6.12;100.00;101359.00;6272962;22;46680;-82
2023/12/07 08:11:29;;;;;;;;;0.00;0.00;;;;;6.14;100.00;101353.84;6245014;22;45267;-83
2023/12/07 08:13:54;;;;;;;;;0.00;0.00;;;;;6.15;100.00;101343.50;6245966;22;45332;-84
2023/12/07 08:16:19;;;;;;;;;0.00;0.00;;;;;6.17;100.00;101353.84;6244515;22;59952;-84
2023/12/07 08:18:45;;;;;;;;;0.00;0.00;;;;;6.18;100.00;101348.69;6245410;22;68213;-84
2023/12/07 08:21:21;;;;;;;;;0.00;0.00;;;;;6.20;100.00;101346.09;6273045;22;45336;-84
2023/12/07 08:23:47;;;;;;;;;0.00;0.00;;;;;6.19;100.00;101342.66;6245929;22;45184;-83
2023/12/07 08:26:14;;;;;;;;;0.00;0.00;;;;;6.19;100.00;101334.03;6272574;22;68729;-83
2023/12/07 08:28:39;;;;;;;;;0.00;0.00;;;;;6.22;100.00;101331.44;6245882;22;47219;-84
2023/12/07 08:31:05;;;;;;;;;2.00;2.00;;;;;6.20;100.00;101322.81;6270358;22;46216;-82
2023/12/07 08:33:30;;;;;;;;;1.00;1.00;;;;;6.18;100.00;101321.97;6272976;22;45627;-84
2023/12/07 08:35:59;;;;;;;;;0.00;0.00;;;;;6.25;100.00;101315.91;6244824;22;60410;-84
2023/12/07 08:38:24;;;;;;;;;0.00;0.00;;;;;6.28;100.00;101317.63;6245362;22;55302;-83
2023/12/07 08:40:49;;;;;;;;;0.00;0.00;;;;;6.36;100.00;101314.16;6245487;22;63230;-83
2023/12/07 08:43:15;;;;;;;;;3.00;0.00;;;;;6.34;100.00;101323.66;6271962;22;61497;-84
2023/12/07 08:45:40;;;;;;;;;1.00;0.00;;;;;6.39;100.00;101334.88;6243892;22;62321;-83
2023/12/07 08:48:05;;;;;;;;;0.00;0.00;;;;;6.42;100.00;101333.97;6244408;22;45267;-82
2023/12/07 08:50:31;;;;;;;;;6.00;6.00;;;;;6.43;100.00;101329.69;6272639;22;54846;-82
2023/12/07 08:52:56;;;;;;;;;0.00;0.00;;;;;6.45;100.00;101335.72;6244429;22;63496;-81
2023/12/07 08:55:22;;;;;;;;;0.00;0.00;;;;;6.51;100.00;101328.78;6245380;22;45389;-82
2023/12/07 08:57:47;;;;;;;;;0.00;0.00;;;;;6.52;100.00;101307.25;6272624;22;47017;-81
2023/12/07 09:00:13;;;;;;;;;8.67;8.67;;;;;6.56;100.00;101308.09;6270430;22;45294;-82
2023/12/07 09:02:38;;;;;;;;;0.00;0.00;;;;;6.64;100.00;101305.47;6245350;22;45371;-83
2023/12/07 09:05:04;;;;;;;;;0.00;0.00;;;;;6.71;100.00;101297.69;6244379;22;67720;-82
2023/12/07 09:07:29;;;;;;;;;0.00;0.00;;;;;6.78;100.00;101309.75;6245688;22;46479;-82
2023/12/07 09:09:59;;;;;;;;;0.00;0.00;;;;;6.82;100.00;101302.81;6244939;22;62777;-85
2023/12/07 09:12:57;;;;;;;;;0.00;0.00;;;;;6.88;100.00;101295.03;6246219;22;45267;-84
2023/12/07 09:23:05;;;;;;;;;0.00;0.00;;;;;7.07;100.00;101251.78;6225248;22;45303;-88
2023/12/07 09:25:50;;;;;;;;;0.00;0.00;;;;;7.17;100.00;101248.28;6244343;22;45245;-85
2023/12/07 09:28:15;;;;;;;;;0.00;0.00;;;;;7.24;100.00;101243.03;6240877;22;45500;-83
2023/12/07 09:30:41;;;;;;;;;0.00;0.00;;;;;7.31;100.00;101242.97;6241151;22;74609;-84
2023/12/07 09:33:06;;;;;;;;;0.00;0.00;;;;;7.42;100.00;101252.41;6240294;22;68240;-84
2023/12/07 09:35:34;;;;;;;;;0.00;0.00;;;;;7.48;100.00;101242.00;6243548;22;45664;-82
2023/12/07 09:38:02;;;;;;;;;0.00;0.00;;;;;7.56;100.00;101259.22;6244308;22;45481;-84
2023/12/07 09:40:28;;;;;;;;;1.00;1.00;;;;;7.60;100.00;101260.03;6267404;22;47306;-83
2023/12/07 09:42:53;;;;;;;;;0.00;0.00;;;;;7.69;100.00;101246.13;6241554;22;45418;-82
2023/12/07 09:45:27;;;;;;;;;0.00;0.00;;;;;7.72;100.00;101246.97;6216944;22;45392;-83
2023/12/07 09:47:54;;;;;;;;;0.00;0.00;;;;;7.75;100.00;101235.72;6241434;22;45590;-83
2023/12/07 09:50:21;;;;;;;;;0.00;0.00;;;;;7.81;100.00;101227.03;6242302;22;46114;-84
2023/12/07 09:52:56;;;;;;;;;0.00;0.00;;;;;7.83;100.00;101220.09;6241832;22;45459;-84
2023/12/07 09:55:22;;;;;;;;;0.00;0.00;;;;;7.84;100.00;101229.59;6242933;22;45375;-83
2023/12/07 09:57:47;;;;;;;;;4.00;2.50;;;;;7.86;100.00;101220.94;6240891;22;45320;-83
2023/12/07 10:00:17;;;;;;;;;0.00;0.00;;;;;7.80;100.00;101196.78;6242308;22;45595;-84
2023/12/07 10:02:44;;;;;;;;;0.00;0.00;;;;;7.81;100.00;101188.16;6242769;22;45197;-84
2023/12/07 10:05:16;;;;;;;;;0.00;0.00;;;;;7.78;100.00;101178.66;6243053;22;45377;-84
2023/12/07 10:07:50;;;;;;;;;0.00;0.00;;;;;7.81;100.00;101183.81;6242049;22;45275;-83
2023/12/07 10:10:16;;;;;;;;;0.00;0.00;;;;;7.83;100.00;101171.72;6243236;22;46317;-83
2023/12/07 10:13:08;;;;;;;;;0.00;0.00;;;;;7.85;100.00;101171.69;6240766;22;45255;-83
2023/12/07 10:15:33;;;;;;;;;0.00;0.00;;;;;7.83;100.00;101163.09;6236469;22;45550;-83
2023/12/07 10:17:59;;;;;;;;;0.00;0.00;;;;;7.82;100.00;101157.06;6241771;22;45271;-84
2023/12/07 10:20:27;;;;;;;;;0.00;0.00;;;;;7.83;100.00;101152.72;6241050;22;46427;-84
2023/12/07 10:23:07;;;;;;;;;0.00;0.00;;;;;7.89;100.00;101163.88;6241437;22;45270;-84
2023/12/07 10:25:36;;;;;;;;;19.00;19.00;;;;;7.91;100.00;101163.84;6243295;22;45502;-84
2023/12/07 10:28:03;;;;;;;;;4.00;4.00;;;;;7.89;100.00;101156.09;6242033;22;45432;-83
2023/12/07 10:30:31;;;;;;;;;0.00;0.00;;;;;7.87;100.00;101156.97;6240989;22;45817;-84
2023/12/07 10:32:59;;;;;;;;;0.00;0.00;;;;;7.88;100.00;101150.94;6241440;22;45344;-87
2023/12/07 10:35:25;;;;;;;;;0.00;0.00;;;;;7.89;100.00;101143.16;6243311;22;45225;-84
2023/12/07 10:37:50;;;;;;;;;0.00;0.00;;;;;7.90;100.00;101157.81;6243472;22;45265;-85
2023/12/07 10:40:19;;;;;;;;;0.00;0.00;;;;;7.91;100.00;101154.34;6266909;22;46303;-85
2023/12/07 10:42:47;;;;;;;;;6.00;6.00;;;;;7.92;100.00;101144.84;6241692;22;45329;-84
2023/12/07 10:45:15;;;;;;;;;0.00;0.00;;;;;7.91;100.00;101135.31;6241832;22;45528;-85
2023/12/07 10:47:43;;;;;;;;;0.00;0.00;;;;;7.92;100.00;101122.34;6241705;22;45235;-84
2023/12/07 10:50:10;;;;;;;;;0.00;0.00;;;;;7.96;100.00;101128.38;6241931;22;45415;-84
2023/12/07 10:52:38;;;;;;;;;0.00;0.00;;;;;7.96;100.00;101138.72;6242480;22;45292;-84
2023/12/07 10:55:09;;;;;;;;;0.00;0.00;;;;;7.97;100.00;101140.47;6241752;22;45343;-85
2023/12/07 10:57:38;;;;;;;;;0.00;0.00;;;;;7.98;100.00;101124.00;6241941;22;45463;-85
2023/12/07 11:00:05;;;;;;;;;0.00;0.00;;;;;8.00;100.00;101122.25;6242508;22;46547;-86
2023/12/07 11:02:32;;;;;;;;;0.00;0.00;;;;;7.99;100.00;101114.53;6241969;22;45303;-85
2023/12/07 11:05:05;;;;;;;;;0.00;0.00;;;;;8.03;100.00;101085.94;6243327;22;45208;-85
2023/12/07 11:07:42;;;;;;;;;0.00;0.00;;;;;8.08;100.00;101078.13;6243731;22;45325;-84
2023/12/07 11:10:34;;;;;;;;;1.00;1.00;;;;;8.02;100.00;101062.63;6215303;22;47302;-85
2023/12/07 11:13:35;;;;;;;;;0.00;0.00;;;;;8.04;100.00;101077.28;6154564;23;45330;-87
2023/12/07 11:16:41;;;;;;;;;0.00;0.00;;;;;8.00;100.00;101056.59;6180020;23;45274;-87
2023/12/07 11:19:24;;;;;;;;;;;;;;;;;;;;;
2023/12/07 11:21:52;;;;;;;;;1.00;1.00;;;;;8.14;100.00;101046.91;6175465;23;75083;-86
2023/12/07 11:25:04;;;;;;;;;;;;;;;;;;;;;
2023/12/07 11:28:39;;;;;;;;;0.00;0.00;;;;;8.11;100.00;101045.19;6180937;23;45257;-88
2023/12/07 11:38:49;;;;;;;;;0.00;0.00;;;;;8.02;100.00;101024.59;5908811;24;45691;-86
2023/12/07 11:41:47;;;;;;;;;;;;;;;;;;;;;
2023/12/07 11:44:36;;;;;;;;;1.00;1.00;;;;;7.98;100.00;101027.25;5813675;24;71091;-88
2023/12/07 11:47:41;;;;;;;;;;;;;;;;;;;;;
2023/12/07 11:50:10;;;;;;;;;0.00;0.00;;;;;7.93;100.00;101020.41;5862954;24;74005;-87
2023/12/07 11:52:46;;;;;;;;;0.00;0.00;;;;;7.91;100.00;101010.91;5846339;24;45466;-86
2023/12/07 11:55:11;;;;;;;;;0.00;0.00;;;;;7.88;100.00;101001.44;5870832;24;45396;-85
2023/12/07 11:57:43;;;;;;;;;0.00;0.00;;;;;7.89;100.00;100990.22;5869408;24;45281;-94
2023/12/07 12:00:27;;;;;;;;;0.00;0.00;;;;;7.90;100.00;100980.69;5890546;24;69322;-87
2023/12/07 12:03:11;;;;;;;;;0.00;0.00;;;;;7.90;100.00;100973.78;5869851;24;45339;-86
2023/12/07 12:05:38;;;;;;;;;0.00;0.00;;;;;7.89;100.00;100956.53;5892031;24;45525;-84
2023/12/07 12:08:06;;;;;;;;;0.00;0.00;;;;;7.92;100.00;100971.16;5929352;23;47049;-88
2023/12/07 12:10:35;;;;;;;;;9.25;7.00;;;;;7.91;100.00;100961.66;5969250;23;45287;-86
2023/12/07 12:13:06;;;;;;;;;0.00;0.00;;;;;7.88;100.00;100970.34;6030677;23;60250;-84
2023/12/07 12:15:32;;;;;;;;;4.00;4.00;;;;;7.83;100.00;100960.94;6109816;23;50830;-85
2023/12/07 12:17:58;;;;;;;;;0.00;0.00;;;;;7.85;100.00;100953.97;6157840;22;71677;-85
2023/12/07 12:20:29;;;;;;;;;0.00;0.00;;;;;7.83;100.00;100959.19;6239381;22;45396;-85
2023/12/07 12:22:54;;;;;;;;;0.00;0.00;;;;;7.82;100.00;100954.91;6240710;22;45359;-85
2023/12/07 12:25:28;;;;;;;;;0.00;0.00;;;;;7.79;100.00;100941.97;6243093;22;45272;-86
2023/12/07 12:27:55;;;;;;;;;0.00;0.00;;;;;7.82;100.00;100947.13;6241261;22;45495;-86
2023/12/07 12:30:22;;;;;;;;;0.00;0.00;;;;;7.78;100.00;100942.00;6241108;22;45348;-85
2023/12/07 12:32:48;;;;;;;;;0.00;0.00;;;;;7.79;100.00;100931.59;6241121;22;45427;-86
2023/12/07 12:35:16;;;;;;;;;0.00;0.00;;;;;7.77;100.00;100915.22;6240939;22;45509;-86
2023/12/07 12:37:43;;;;;;;;;0.00;0.00;;;;;7.73;100.00;100911.81;6240897;22;46969;-86
2023/12/07 12:40:18;;;;;;;;;0.00;0.00;;;;;7.74;100.00;100882.44;6242261;22;45239;-86
2023/12/07 12:42:45;;;;;;;;;0.00;0.00;;;;;7.79;100.00;100897.91;6240432;22;45397;-86
2023/12/07 12:45:11;;;;;;;;;0.00;0.00;;;;;7.80;100.00;100902.25;6241521;22;45279;-86
2023/12/07 12:47:36;;;;;;;;;0.00;0.00;;;;;7.87;100.00;100885.69;6240563;22;47227;-85
2023/12/07 12:50:04;;;;;;;;;1.50;1.50;;;;;7.93;100.00;100880.44;6240573;22;45994;-85
2023/12/07 12:52:30;;;;;;;;;0.00;0.00;;;;;8.07;100.00;100882.78;6242627;22;45280;-86
2023/12/07 12:54:56;;;;;;;;;0.00;0.00;;;;;8.16;100.00;100883.53;6242768;22;45421;-85
2023/12/07 12:57:22;;;;;;;;;0.00;0.00;;;;;8.21;100.00;100881.69;6242252;22;47103;-86
2023/12/07 12:59:48;;;;;;;;;0.00;0.00;;;;;8.27;100.00;100871.25;6242457;22;45253;-86
2023/12/07 13:02:14;;;;;;;;;0.00;0.00;;;;;8.30;100.00;100858.19;6242544;22;45453;-84
2023/12/07 13:04:42;;;;;;;;;0.00;0.00;;;;;8.32;100.00;100853.84;6243352;22;45401;-86
2023/12/07 13:07:15;;;;;;;;;0.00;0.00;;;;;8.28;100.00;100827.13;6268164;22;48028;-87
2023/12/07 13:09:40;;;;;;;;;0.00;0.00;;;;;8.29;100.00;100830.56;6244571;22;45214;-87
2023/12/07 13:16:12;;;;;;;;;0.00;0.00;;;;;8.25;100.00;100792.63;6090865;23;45620;-90
2023/12/07 13:18:37;;;;;;;;;0.00;0.00;;;;;8.29;100.00;100796.84;6090114;23;45460;-89
2023/12/07 13:21:14;;;;;;;;;0.00;0.00;;;;;8.36;100.00;100793.28;6065135;23;45467;-87
2023/12/07 13:23:39;;;;;;;;;0.00;0.00;;;;;8.45;100.00;100787.06;6091200;23;45235;-86
2023/12/07 13:26:06;;;;;;;;;0.00;0.00;;;;;8.43;100.00;100774.16;6067098;23;45383;-86
2023/12/07 13:28:31;;;;;;;;;0.00;0.00;;;;;8.51;100.00;100800.78;6067200;23;46509;-86
2023/12/07 13:30:59;;;;;;;;;12.00;12.00;;;;;8.42;100.00;100803.56;6091625;23;45276;-87
2023/12/07 13:33:28;;;;;;;;;0.00;0.00;;;;;8.44;100.00;100809.56;6066648;23;45320;-86
2023/12/07 13:35:56;;;;;;;;;0.00;0.00;;;;;8.47;100.00;100825.09;6090918;23;45337;-85
2023/12/07 13:38:23;;;;;;;;;0.75;0.75;;;;;8.46;100.00;100809.53;6066573;23;47934;-87
2023/12/07 13:40:49;;;;;;;;;0.00;0.00;;;;;8.40;100.00;100804.44;6042673;23;45810;-87
2023/12/07 13:43:20;;;;;;;;;0.00;0.00;;;;;8.33;100.00;100794.16;6091479;23;45391;-86
2023/12/07 13:45:45;;;;;;;;;1.00;1.00;;;;;8.30;100.00;100777.81;6091481;23;45443;-86
2023/12/07 13:48:12;;;;;;;;;0.75;0.75;;;;;8.25;100.00;100771.88;6090658;23;45545;-86
2023/12/07 13:50:40;;;;;;;;;0.00;0.00;;;;;8.19;100.00;100757.28;6091764;23;45337;-86
2023/12/07 13:53:05;;;;;;;;;0.00;0.00;;;;;8.11;100.00;100756.56;6176235;22;45273;-86
2023/12/07 13:55:30;;;;;;;;;1.00;1.00;;;;;8.09;100.00;100756.56;6247275;22;45437;-86
2023/12/07 13:57:57;;;;;;;;;0.00;0.00;;;;;8.02;100.00;100754.13;6273179;22;47617;-87
2023/12/07 14:00:24;;;;;;;;;0.00;0.00;;;;;8.05;100.00;100754.09;6247601;22;45375;-87
2023/12/07 14:02:50;;;;;;;;;0.00;0.00;;;;;7.97;100.00;100733.50;6247928;22;45279;-86
2023/12/07 14:05:16;;;;;;;;;0.00;0.00;;;;;7.98;100.00;100730.00;6273434;22;45357;-87
2023/12/07 14:07:41;;;;;;;;;0.00;0.00;;;;;7.96;100.00;100711.03;6247081;22;45372;-86
2023/12/07 14:10:07;;;;;;;;;0.75;0.00;;;;;7.91;100.00;100686.94;6273080;22;45585;-87
2023/12/07 14:12:33;;;;;;;;;0.00;0.00;;;;;7.91;100.00;100687.81;6246965;22;45779;-84
2023/12/07 14:14:58;;;;;;;;;0.00;0.00;;;;;7.83;100.00;100684.47;6247502;22;45409;-87
2023/12/07 14:17:24;;;;;;;;;0.00;0.00;;;;;7.84;100.00;100685.34;6272322;22;47685;-86
2023/12/07 14:19:49;;;;;;;;;0.00;0.00;;;;;7.89;100.00;100686.09;6246191;22;45354;-85
2023/12/07 14:22:15;;;;;;;;;0.00;0.00;;;;;7.85;100.00;100687.03;6273875;22;45282;-86
2023/12/07 14:24:40;;;;;;;;;0.00;0.00;;;;;7.83;100.00;100684.47;6247584;22;45395;-85
2023/12/07 14:27:07;;;;;;;;;0.00;0.00;;;;;7.88;100.00;100694.78;6246435;22;46964;-85
2023/12/07 14:29:32;;;;;;;;;0.00;0.00;;;;;7.90;100.00;100686.06;6274404;22;45263;-86
2023/12/07 14:31:58;;;;;;;;;0.00;0.00;;;;;7.83;100.00;100675.84;6247023;22;45326;-86
2023/12/07 14:34:25;;;;;;;;;0.00;0.00;;;;;7.88;100.00;100674.03;6274361;22;45435;-86
2023/12/07 14:36:51;;;;;;;;;0.00;0.00;;;;;7.91;100.00;100668.78;6273863;22;46408;-86
2023/12/07 14:39:16;;;;;;;;;0.00;0.00;;;;;7.90;100.00;100670.53;6247129;22;45365;-86
2023/12/07 14:41:50;;;;;;;;;0.00;0.00;;;;;7.97;100.00;100688.53;6221552;22;45252;-85
2023/12/07 14:44:17;;;;;;;;;0.00;0.00;;;;;7.90;100.00;100714.59;6247994;22;45450;-87
2023/12/07 14:46:47;;;;;;;;;0.00;0.00;;;;;7.90;100.00;100734.47;6271507;22;47631;-87
2023/12/07 14:49:13;;;;;;;;;0.00;0.00;;;;;7.93;100.00;100700.72;6246656;22;45908;-86
2023/12/07 14:51:39;;;;;;;;;0.00;0.00;;;;;7.89;100.00;100681.78;6246877;22;45354;-85
2023/12/07 14:54:05;;;;;;;;;0.00;0.00;;;;;7.92;100.00;100673.09;6247430;22;45251;-86
2023/12/07 14:56:30;;;;;;;;;0.00;0.00;;;;;7.97;100.00;100660.91;6273956;22;45384;-86
2023/12/07 14:58:58;;;;;;;;;0.00;0.00;;;;;7.91;100.00;100641.16;6220976;22;55427;-86
2023/12/07 15:01:23;;;;;;;;;0.00;0.00;;;;;7.88;100.00;100645.53;6246390;22;45336;-86
2023/12/07 15:03:51;;;;;;;;;0.00;0.00;;;;;7.90;100.00;100639.44;6272638;22;45254;-86
2023/12/07 15:06:17;;;;;;;;;0.00;0.00;;;;;7.83;100.00;100635.25;6247280;22;47101;-86
2023/12/07 15:08:43;;;;;;;;;0.00;0.00;;;;;7.87;100.00;100621.34;6247518;22;45328;-85
2023/12/07 15:11:08;;;;;;;;;0.75;0.75;;;;;7.82;100.00;100630.97;6246823;22;45438;-85
2023/12/07 15:13:35;;;;;;;;;0.00;0.00;;;;;7.80;100.00;100648.28;6247348;22;45276;-86
2023/12/07 15:16:01;;;;;;;;;0.75;0.75;;;;;7.84;100.00;100656.84;6246439;22;48199;-86
2023/12/07 15:18:31;;;;;;;;;0.00;0.00;;;;;7.78;100.00;100646.56;6246632;22;45835;-87
2023/12/07 15:20:56;;;;;;;;;0.00;0.00;;;;;7.73;100.00;100655.28;6216660;22;45336;-86
2023/12/07 15:23:24;;;;;;;;;0.00;0.00;;;;;7.75;100.00;100682.03;6242911;22;45385;-87
2023/12/07 15:25:49;;;;;;;;;0.00;0.00;;;;;7.73;100.00;100694.16;6241261;22;46518;-87
2023/12/07 15:28:15;;;;;;;;;0.00;0.00;;;;;7.73;100.00;100678.63;6242541;22;45479;-86
2023/12/07 15:30:43;;;;;;;;;0.00;0.00;;;;;7.73;100.00;100664.81;6243229;22;45254;-86
2023/12/07 15:33:09;;;;;;;;;0.00;0.00;;;;;7.74;100.00;100666.50;6242020;22;45204;-86
2023/12/07 15:35:36;;;;;;;;;0.00;0.00;;;;;7.75;100.00;100687.22;6242139;22;45880;-87
2023/12/07 15:38:02;;;;;;;;;0.00;0.00;;;;;7.72;100.00;100707.13;6216293;22;45577;-86
2023/12/07 15:43:26;;;;;;;;;0.00;0.00;;;;;7.68;100.00;100690.78;6226456;22;45765;-86
2023/12/07 15:45:52;;;;;;;;;0.00;0.00;;;;;7.72;100.00;100663.09;6242525;22;46373;-85
2023/12/07 15:48:29;;;;;;;;;0.00;0.00;;;;;7.71;100.00;100651.88;6241594;22;45527;-87
2023/12/07 15:51:07;;;;;;;;;0.00;0.00;;;;;7.65;100.00;100633.00;6268153;22;45277;-86
2023/12/07 15:53:35;;;;;;;;;0.00;0.00;;;;;7.66;100.00;100620.03;6239138;22;45503;-85
2023/12/07 15:56:03;;;;;;;;;0.00;0.00;;;;;7.68;100.00;100614.81;6241370;22;47300;-86
2023/12/07 15:58:28;;;;;;;;;0.00;0.00;;;;;7.64;100.00;100608.00;6241451;22;45285;-84
2023/12/07 16:00:54;;;;;;;;;0.00;0.00;;;;;7.66;100.00;100601.03;6239588;22;69026;-84
2023/12/07 16:03:19;;;;;;;;;0.00;0.00;;;;;7.65;100.00;100576.88;6240540;22;45418;-84
2023/12/07 16:05:44;;;;;;;;;0.00;0.00;;;;;7.65;100.00;100568.22;6239423;22;74206;-82
2023/12/07 16:08:10;;;;;;;;;0.00;0.00;;;;;7.60;100.00;100550.19;6215083;22;45788;-83
2023/12/07 16:10:35;;;;;;;;;0.00;0.00;;;;;7.59;100.00;100574.38;6238797;22;71605;-83
2023/12/07 16:13:00;;;;;;;;;0.00;0.00;;;;;7.57;100.00;100584.78;6239678;22;45385;-82
2023/12/07 16:15:26;;;;;;;;;0.00;0.00;;;;;7.59;100.00;100570.94;6239711;22;75397;-85
2023/12/07 16:17:51;;;;;;;;;0.00;0.00;;;;;7.55;100.00;100557.19;6240098;22;60942;-83
2023/12/07 16:20:17;;;;;;;;;0.00;0.00;;;;;7.53;100.00;100567.59;6240849;22;45583;-83
2023/12/07 16:22:43;;;;;;;;;0.00;0.00;;;;;7.54;100.00;100563.25;6240307;22;45459;-83
2023/12/07 16:25:09;;;;;;;;;0.00;0.00;;;;;7.53;100.00;100562.41;6213584;22;47856;-82
2023/12/07 16:27:34;;;;;;;;;0.00;0.00;;;;;7.52;100.00;100568.50;6240393;22;45396;-83
2023/12/07 16:30:03;;;;;;;;;0.00;0.00;;;;;7.48;100.00;100578.91;6239944;22;55278;-82
2023/12/07 16:32:33;;;;;;;;;0.00;0.00;;;;;7.48;100.00;100571.16;6241910;22;45525;-84
2023/12/07 16:34:59;;;;;;;;;0.00;0.00;;;;;7.55;100.00;100583.94;6240237;22;46159;-83
2023/12/07 16:37:25;;;;;;;;;0.00;0.00;;;;;7.54;100.00;100564.13;6241536;22;45459;-83
2023/12/07 16:39:55;;;;;;;;;0.00;0.00;;;;;7.50;100.00;100562.47;6243713;22;45266;-84
2023/12/07 16:42:30;;;;;;;;;0.00;0.00;;;;;7.57;100.00;100568.38;6242908;22;45382;-83
2023/12/07 16:44:57;;;;;;;;;0.00;0.00;;;;;7.53;100.00;100554.63;6241434;22;47094;-82
2023/12/07 16:47:23;;;;;;;;;0.00;0.00;;;;;7.60;100.00;100555.38;6243060;22;45181;-83
2023/12/07 16:49:48;;;;;;;;;0.00;0.00;;;;;7.60;100.00;100544.19;6241671;22;45311;-84
2023/12/07 16:52:18;;;;;;;;;0.00;0.00;;;;;7.63;100.00;100541.50;6242402;22;45430;-84
2023/12/07 16:54:43;;;;;;;;;0.00;0.00;;;;;7.58;100.00;100539.03;6241614;22;47103;-84
2023/12/07 16:57:11;;;;;;;;;0.00;0.00;;;;;7.61;100.00;100523.41;6267179;22;45458;-84
2023/12/07 16:59:44;;;;;;;;;0.00;0.00;;;;;7.60;100.00;100513.09;6241819;22;45331;-84
2023/12/07 17:02:09;;;;;;;;;0.00;0.00;;;;;7.57;100.00;100490.69;6241458;22;45501;-84
2023/12/07 17:04:35;;;;;;;;;0.00;0.00;;;;;7.56;100.00;100487.25;6241461;22;45217;-83
2023/12/07 17:07:10;;;;;;;;;;;;;;;;;;;;;
2023/12/07 17:09:36;;;;;;;;;0.00;0.00;;;;;7.58;100.00;100484.63;6242268;22;67660;-83
2023/12/07 17:12:01;;;;;;;;;0.00;0.00;;;;;7.55;100.00;100484.69;6241137;22;45303;-83
2023/12/07 17:14:27;;;;;;;;;0.00;0.00;;;;;7.55;100.00;100475.16;6241409;22;46100;-84
2023/12/07 17:16:54;;;;;;;;;3.00;3.00;;;;;7.54;100.00;100472.59;6241512;22;45357;-83
2023/12/07 17:19:20;;;;;;;;;0.00;0.00;;;;;7.55;100.00;100488.09;6266881;22;45347;-84
2023/12/07 17:21:47;;;;;;;;;0.00;0.00;;;;;7.57;100.00;100486.34;6214867;22;45468;-84
2023/12/07 17:24:14;;;;;;;;;1.00;1.00;;;;;7.59;100.00;100481.13;6242010;22;46178;-85
2023/12/07 17:26:42;;;;;;;;;0.00;0.00;;;;;7.55;100.00;100464.78;6239162;22;45328;-85
2023/12/07 17:29:07;;;;;;;;;0.00;0.00;;;;;7.57;100.00;100469.94;6241464;22;45188;-84
2023/12/07 17:31:44;;;;;;;;;0.00;0.00;;;;;7.52;100.00;100466.59;6241780;22;45263;-87
2023/12/07 17:34:19;;;;;;;;;0.00;0.00;;;;;7.45;100.00;100455.53;6215933;22;47269;-84
2023/12/07 17:36:47;;;;;;;;;0.00;0.00;;;;;7.47;100.00;100464.13;6241222;22;45273;-85
2023/12/07 17:39:14;;;;;;;;;0.00;0.00;;;;;7.44;100.00;100469.34;6243455;22;45354;-84
2023/12/07 17:41:42;;;;;;;;;0.00;0.00;;;;;7.38;100.00;100474.66;6242063;22;45430;-85
2023/12/07 17:44:08;;;;;;;;;0.00;0.00;;;;;7.35;100.00;100464.34;6265257;22;47027;-84
2023/12/07 17:46:36;;;;;;;;;0.00;0.00;;;;;7.35;100.00;100457.47;6266421;22;45728;-84
2023/12/07 17:49:01;;;;;;;;;0.00;0.00;;;;;7.38;100.00;100447.91;6241031;22;45293;-83
2023/12/07 17:51:29;;;;;;;;;0.00;0.00;;;;;7.38;100.00;100459.13;6215227;22;45503;-84
2023/12/07 17:53:54;;;;;;;;;0.00;0.00;;;;;7.40;100.00;100448.75;6243745;22;46497;-88
2023/12/07 17:56:20;;;;;;;;;0.00;0.00;;;;;7.34;100.00;100440.19;6242295;22;45494;-88
2023/12/07 17:58:47;;;;;;;;;0.00;0.00;;;;;7.34;100.00;100447.13;6242284;22;45598;-88
2023/12/07 18:01:28;;;;;;;;;0.00;0.00;;;;;7.34;100.00;100462.66;6268526;22;45227;-88
2023/12/07 18:03:53;;;;;;;;;0.00;0.00;;;;;7.30;100.00;100459.28;6243816;22;48219;-89
2023/12/07 18:06:18;;;;;;;;;0.00;0.00;;;;;7.34;100.00;100447.97;6244900;22;45271;-88
2023/12/07 18:08:44;;;;;;;;;0.00;0.00;;;;;7.34;100.00;100442.78;6243478;22;45315;-88
2023/12/07 18:11:20;;;;;;;;;0.00;0.00;;;;;7.34;100.00;100429.00;6242590;22;45382;-87
2023/12/07 18:13:46;;;;;;;;;0.00;0.00;;;;;7.34;100.00;100432.44;6242442;22;45341;-88
2023/12/07 18:16:11;;;;;;;;;0.00;0.00;;;;;7.33;100.00;100448.00;6242807;22;45251;-87
2023/12/07 18:18:36;;;;;;;;;0.00;0.00;;;;;7.33;100.00;100448.84;6242482;22;47642;-88
2023/12/07 18:21:02;;;;;;;;;0.00;0.00;;;;;7.33;100.00;100448.84;6216841;22;45475;-88